Hauptseite
METAR-TAF:

METAR-TAF

Flughäfen :

Flughafen Batman

Batman, Türkei

Breite: 37-52N, Länge: 041-10E, Höhe: 540 m

Beobachtung

Neuester Wetterbericht von vor 45 Minuten, um 18:50 UTC
Wind 5 kt aus Nordost
Temperatur 25°C
Luftfeuchtigkeit 39%
Luftdruck 1003 hPa
Sichtweite 10 km oder mehr
keine Wolken unter 1500 m und keine Kumulonimbus oder Gewitterwolken

METAR: LTCJ 121850Z 05005KT CAVOK 25/10 Q1003 NOSIG RMK RWY20 03003KT 340V120 SKC

Zeit: 22:35 (19:35 UTC)

Prognose

Neuester Wetterbericht von vor 2 Stunden und 55 Minuten, um 16:40 UTC
Gültige Prognose vom 12 um 18 UTC bis 13 um 18 UTC
Wind 2 kt aus unterschiedlichen Richtungen
Sichtweite 10 km oder mehr
keine Wolken unter 1500 m und keine Kumulonimbus oder Gewitterwolken

TAF: LTCJ 121640Z 1218/1318 VRB02KT CAVOK

Wetterbeobachtungen und Prognosen von mehr als 4000 Flughäfen (METAR und TAF Bericht).

Die verfügbaren Stationen werden durch gelbe und rote Markierungen auf der Karte dargestellt.

Führen Sie die Maus auf sie, um den Namen der Station zu sehen.

Darauf klicken, um die Beobachtung von Wetterbeobachtungen und Prognosen zu sehen.

Um die Karte zu ändern : klicken Sie auf den grünen Tasten mit einem schwarzen Kreuz Zum Vergrößern, auf den grünen Button mit einem Gedankenstrich zu verkleinern, oder auf die grünen Pfeile für benachbarte Karten.


METAR-TAF: